createdAt,value
2022-08-12T00:02:07.793Z,4.03
2022-08-12T00:04:56.926Z,3.90
2022-08-12T00:07:43.874Z,4.03
2022-08-12T00:10:30.459Z,3.43
2022-08-12T00:13:19.842Z,4.00
2022-08-12T00:16:06.151Z,3.30
2022-08-12T00:18:59.430Z,4.60
2022-08-12T00:21:47.066Z,3.47
2022-08-12T00:24:36.653Z,4.00
2022-08-12T00:27:27.470Z,3.93
2022-08-12T00:30:39.714Z,3.80
2022-08-12T00:33:29.730Z,5.00
2022-08-12T00:36:35.876Z,3.67
2022-08-12T00:39:24.419Z,5.00
2022-08-12T00:42:13.041Z,4.27
2022-08-12T00:44:45.576Z,4.37
2022-08-12T00:47:25.545Z,4.20
2022-08-12T00:49:56.151Z,4.83
2022-08-12T00:52:26.167Z,4.73
2022-08-12T00:54:59.338Z,5.13
2022-08-12T00:57:30.569Z,4.20
2022-08-12T01:00:02.249Z,5.20
2022-08-12T01:02:34.004Z,4.30
2022-08-12T01:05:23.743Z,3.67
2022-08-12T01:08:11.511Z,4.57
2022-08-12T01:11:01.210Z,4.43
2022-08-12T01:13:32.052Z,4.70
2022-08-12T01:16:03.798Z,4.20
2022-08-12T01:18:36.356Z,4.47
2022-08-12T01:21:12.997Z,4.27
2022-08-12T01:23:50.129Z,4.00
2022-08-12T01:26:23.343Z,4.40
2022-08-12T01:28:58.529Z,3.97
2022-08-12T01:31:30.267Z,4.57
2022-08-12T01:34:05.617Z,4.47
2022-08-12T01:36:58.692Z,5.20
2022-08-12T01:39:32.814Z,4.10
2022-08-12T01:42:08.363Z,4.50
2022-08-12T01:44:39.519Z,5.17
2022-08-12T01:47:19.228Z,4.80
2022-08-12T01:50:05.476Z,4.50
2022-08-12T01:52:49.715Z,4.37
2022-08-12T01:55:22.927Z,4.60
2022-08-12T01:58:02.950Z,5.17
2022-08-12T02:00:54.738Z,4.63
2022-08-12T02:03:59.739Z,4.20
2022-08-12T02:06:51.605Z,4.50
2022-08-12T02:09:47.259Z,5.30
2022-08-12T02:12:28.696Z,4.70
2022-08-12T02:15:13.276Z,4.87
2022-08-12T02:18:00.155Z,4.70
2022-08-12T02:20:52.504Z,4.57
2022-08-12T02:23:28.005Z,5.10
2022-08-12T02:26:02.301Z,5.50
2022-08-12T02:28:32.483Z,4.30
2022-08-12T02:31:08.058Z,5.27
2022-08-12T02:33:38.633Z,5.10
2022-08-12T02:36:08.687Z,4.93
2022-08-12T02:38:43.058Z,4.70
2022-08-12T02:41:14.180Z,4.70
2022-08-12T02:43:51.351Z,5.53
2022-08-12T02:46:27.596Z,4.57
2022-08-12T02:49:00.791Z,4.60
2022-08-12T02:51:32.705Z,5.13
2022-08-12T02:54:06.192Z,5.13
2022-08-12T02:56:40.558Z,4.83
2022-08-12T02:59:11.973Z,5.00
2022-08-12T03:01:51.015Z,5.20
2022-08-12T03:04:26.705Z,4.30
2022-08-12T03:07:09.819Z,4.73
2022-08-12T03:10:05.088Z,4.73
2022-08-12T03:12:49.003Z,5.17
2022-08-12T03:15:22.817Z,5.53
2022-08-12T03:18:26.247Z,4.83
2022-08-12T03:20:46.971Z,5.03
2022-08-12T03:23:28.977Z,5.20
2022-08-12T03:26:01.646Z,4.90
2022-08-12T03:28:54.296Z,4.43
2022-08-12T03:31:25.839Z,4.60
2022-08-12T03:34:02.334Z,5.17
2022-08-12T03:36:35.248Z,4.80
2022-08-12T03:39:35.562Z,4.83
2022-08-12T03:42:21.848Z,4.60
2022-08-12T03:45:16.045Z,5.07
2022-08-12T03:48:09.686Z,5.10
2022-08-12T03:50:59.196Z,4.97
2022-08-12T03:53:47.938Z,5.00
2022-08-12T03:56:35.378Z,4.77
2022-08-12T03:59:26.230Z,4.90
2022-08-12T04:01:58.370Z,4.40
2022-08-12T04:04:29.481Z,4.70
2022-08-12T04:07:00.529Z,5.83
2022-08-12T04:09:33.655Z,5.20
2022-08-12T04:12:22.500Z,4.90
2022-08-12T04:14:57.434Z,5.20
2022-08-12T04:17:28.558Z,4.60
2022-08-12T04:20:00.831Z,5.67
2022-08-12T04:22:31.855Z,5.10
2022-08-12T04:25:02.417Z,5.93
2022-08-12T04:27:32.835Z,5.90
2022-08-12T04:30:31.371Z,5.63
2022-08-12T04:32:52.217Z,5.87
2022-08-12T04:35:23.203Z,5.70
2022-08-12T04:38:00.238Z,6.30
2022-08-12T04:40:31.834Z,5.80
2022-08-12T04:43:02.180Z,6.17
2022-08-12T04:45:32.540Z,5.97
2022-08-12T04:48:02.828Z,5.77
2022-08-12T04:50:35.950Z,5.63
2022-08-12T04:53:09.804Z,7.13
2022-08-12T04:55:40.012Z,5.93
2022-08-12T04:58:09.699Z,6.50
2022-08-12T05:00:39.079Z,6.10
2022-08-12T05:03:08.643Z,5.60
2022-08-12T05:05:40.628Z,5.73
2022-08-12T05:08:15.809Z,6.27
2022-08-12T05:10:46.479Z,6.90
2022-08-12T05:13:19.778Z,5.97
2022-08-12T05:16:05.069Z,6.50
2022-08-12T05:18:40.280Z,5.43
2022-08-12T05:21:15.017Z,5.67
2022-08-12T05:23:45.516Z,6.20
2022-08-12T05:26:14.622Z,6.10
2022-08-12T05:28:43.809Z,5.93
2022-08-12T05:31:13.262Z,6.30
2022-08-12T05:33:45.829Z,5.87
2022-08-12T05:36:16.428Z,5.80
2022-08-12T05:38:59.820Z,5.60
2022-08-12T05:41:31.033Z,6.43
2022-08-12T05:44:01.712Z,5.50
2022-08-12T05:46:31.979Z,5.73
2022-08-12T05:49:01.650Z,5.30
2022-08-12T05:51:41.319Z,5.37
2022-08-12T05:54:12.502Z,5.60
2022-08-12T05:56:42.132Z,5.60
2022-08-12T05:59:12.446Z,6.20
2022-08-12T06:02:10.591Z,5.67
2022-08-12T06:04:33.278Z,6.23
2022-08-12T06:07:59.880Z,6.00
2022-08-12T06:09:55.264Z,6.27
2022-08-12T06:12:24.529Z,6.10
2022-08-12T06:14:56.993Z,5.47
2022-08-12T06:17:26.059Z,5.80
2022-08-12T06:20:26.400Z,5.80
2022-08-12T06:22:45.714Z,5.80
2022-08-12T06:25:21.736Z,5.90
2022-08-12T06:28:07.751Z,5.20
2022-08-12T06:30:39.557Z,5.47
2022-08-12T06:33:55.802Z,4.57
2022-08-12T06:35:59.206Z,4.30
2022-08-12T06:38:30.565Z,5.17
2022-08-12T06:41:20.021Z,5.40
2022-08-12T06:44:06.336Z,5.07
2022-08-12T06:46:38.757Z,4.70
2022-08-12T06:49:08.627Z,5.20
2022-08-12T06:51:37.795Z,5.33
2022-08-12T06:54:07.200Z,4.57
2022-08-12T06:57:03.083Z,5.00
2022-08-12T06:59:27.003Z,4.27
2022-08-12T07:01:56.219Z,4.30
2022-08-12T07:04:36.327Z,4.47
2022-08-12T07:07:08.129Z,4.20
2022-08-12T07:10:01.422Z,3.57
2022-08-12T07:12:28.739Z,4.33
2022-08-12T07:14:58.933Z,3.97
2022-08-12T07:17:35.674Z,3.90
2022-08-12T07:20:08.408Z,3.77
2022-08-12T07:22:37.529Z,4.80
2022-08-12T07:25:25.773Z,3.70
2022-08-12T07:27:56.917Z,3.53
2022-08-12T07:30:26.157Z,3.27
2022-08-12T07:32:59.840Z,3.40
2022-08-12T07:35:32.347Z,3.80
2022-08-12T07:38:02.576Z,3.57
2022-08-12T07:40:31.686Z,4.03
2022-08-12T07:43:02.170Z,3.37
2022-08-12T07:45:31.276Z,3.77
2022-08-12T07:48:00.500Z,3.50
2022-08-12T07:50:29.648Z,3.70
2022-08-12T07:53:00.035Z,3.50
2022-08-12T07:55:32.235Z,3.60
2022-08-12T07:58:02.763Z,3.77
2022-08-12T08:00:34.238Z,3.10
2022-08-12T08:03:03.645Z,3.00
2022-08-12T08:05:38.169Z,3.10
2022-08-12T08:08:22.092Z,2.90
2022-08-12T08:10:52.308Z,2.70
2022-08-12T08:13:21.921Z,2.50
2022-08-12T08:16:09.184Z,2.77
2022-08-12T08:18:38.488Z,2.40
2022-08-12T08:21:09.036Z,2.10
2022-08-12T08:23:58.908Z,2.47
2022-08-12T08:26:33.838Z,2.73
2022-08-12T08:29:04.318Z,2.17
2022-08-12T08:31:35.287Z,2.10
2022-08-12T08:34:34.043Z,2.10
2022-08-12T08:36:54.201Z,1.90
2022-08-12T08:39:28.316Z,1.93
2022-08-12T08:42:18.694Z,1.70
2022-08-12T08:44:57.903Z,2.17
2022-08-12T08:47:27.973Z,1.73
2022-08-12T08:50:01.238Z,2.30
2022-08-12T08:52:39.020Z,2.30
2022-08-12T08:55:11.233Z,2.30
2022-08-12T08:57:43.712Z,2.53
2022-08-12T09:00:16.820Z,2.10
2022-08-12T09:02:58.646Z,1.90
2022-08-12T09:05:43.167Z,2.27
2022-08-12T09:12:07.376Z,1.90
2022-08-12T09:14:19.053Z,1.80
2022-08-12T09:16:50.796Z,1.60
2022-08-12T09:19:27.654Z,2.10
2022-08-12T09:24:49.705Z,1.87
2022-08-12T09:27:20.135Z,2.17
2022-08-12T09:30:10.788Z,1.90
2022-08-12T09:33:03.846Z,1.87
2022-08-12T09:35:33.390Z,2.00
2022-08-12T09:38:28.437Z,2.07
2022-08-12T09:42:08.546Z,1.60
2022-08-12T09:44:37.870Z,1.60
2022-08-12T09:47:01.589Z,1.93
2022-08-12T09:49:42.040Z,2.00
2022-08-12T09:52:15.609Z,1.77
2022-08-12T09:54:44.708Z,2.00
2022-08-12T09:58:46.030Z,1.80
2022-08-12T10:00:13.407Z,2.10
2022-08-12T10:03:01.499Z,1.87
2022-08-12T10:06:27.271Z,1.80
2022-08-12T10:08:30.478Z,1.87
2022-08-12T10:11:20.630Z,1.80
2022-08-12T10:13:52.591Z,2.00
2022-08-12T10:16:24.467Z,1.90
2022-08-12T10:18:59.795Z,2.03
2022-08-12T10:21:37.523Z,1.93
2022-08-12T10:24:08.661Z,1.93
2022-08-12T10:26:59.286Z,2.00
2022-08-12T10:30:38.841Z,2.10
2022-08-12T10:32:44.881Z,2.10
2022-08-12T10:35:17.271Z,2.10
2022-08-12T10:38:37.479Z,1.97
2022-08-12T10:40:58.610Z,1.60
2022-08-12T10:43:56.566Z,2.00
2022-08-12T10:46:30.922Z,2.10
2022-08-12T10:49:05.969Z,1.73
2022-08-12T10:55:48.959Z,2.00
2022-08-12T10:58:30.732Z,1.67
2022-08-12T11:01:49.638Z,1.83
2022-08-12T11:04:28.594Z,2.27
2022-08-12T11:07:05.076Z,1.90
2022-08-12T11:09:41.760Z,2.20
2022-08-12T11:12:55.609Z,1.90
2022-08-12T11:15:18.952Z,2.13
2022-08-12T11:17:53.851Z,2.03
2022-08-12T11:20:30.518Z,2.10
2022-08-12T11:23:03.978Z,1.90
2022-08-12T11:25:55.796Z,1.67
2022-08-12T11:28:34.562Z,1.40
2022-08-12T11:31:12.283Z,1.60
2022-08-12T11:34:05.425Z,1.40
2022-08-12T11:36:39.184Z,1.53
2022-08-12T11:39:11.368Z,1.97
2022-08-12T11:41:43.042Z,1.83
2022-08-12T11:44:36.889Z,1.40
2022-08-12T11:47:03.084Z,1.67
2022-08-12T11:49:38.911Z,1.60
2022-08-12T11:52:26.542Z,1.60
2022-08-12T11:54:58.203Z,1.33
2022-08-12T11:58:13.593Z,1.40
2022-08-12T12:03:09.467Z,1.43
2022-08-12T12:05:39.513Z,1.47
2022-08-12T12:08:40.727Z,1.67
2022-08-12T12:10:59.951Z,1.60
2022-08-12T12:14:08.323Z,1.77
2022-08-12T12:16:37.718Z,1.50
2022-08-12T12:19:10.027Z,1.57
2022-08-12T12:21:46.929Z,1.40
2022-08-12T12:24:21.487Z,1.43
2022-08-12T12:27:00.311Z,1.60
2022-08-12T12:30:19.272Z,1.70
2022-08-12T12:38:04.024Z,1.60
2022-08-12T12:40:18.437Z,1.80
2022-08-12T12:42:56.721Z,1.60
2022-08-12T12:45:33.282Z,1.50
2022-08-12T12:48:05.384Z,2.00
2022-08-12T12:51:13.544Z,1.37
2022-08-12T12:56:34.803Z,1.80
2022-08-12T12:59:54.913Z,1.60
2022-08-12T13:02:10.249Z,1.43
2022-08-12T13:04:44.856Z,2.03
2022-08-12T13:07:19.429Z,1.53
2022-08-12T13:10:13.333Z,1.40
2022-08-12T13:12:43.374Z,1.50
2022-08-12T13:15:42.899Z,1.50
2022-08-12T13:18:07.373Z,1.60
2022-08-12T13:20:43.219Z,1.50
2022-08-12T13:23:36.833Z,1.33
2022-08-12T13:26:04.009Z,8.90
2022-08-12T13:28:33.306Z,2.20
2022-08-12T13:31:05.965Z,2.00
2022-08-12T13:34:31.829Z,1.63
2022-08-12T13:36:24.744Z,1.60
2022-08-12T13:38:55.899Z,1.50
2022-08-12T13:41:35.963Z,1.40
2022-08-12T13:44:07.042Z,1.53
2022-08-12T13:46:42.238Z,1.70
2022-08-12T13:49:17.389Z,1.77
2022-08-12T13:52:21.398Z,1.50
2022-08-12T13:54:56.344Z,1.43
2022-08-12T13:57:46.878Z,1.73
2022-08-12T14:00:17.157Z,1.70
2022-08-12T14:02:46.240Z,1.93
2022-08-12T14:05:38.491Z,1.60
2022-08-12T14:08:11.583Z,1.80
2022-08-12T14:10:51.202Z,1.53
2022-08-12T14:14:05.766Z,1.43
2022-08-12T14:16:37.821Z,1.90
2022-08-12T14:19:22.876Z,2.03
2022-08-12T14:22:17.591Z,1.33
2022-08-12T14:24:47.693Z,1.60
2022-08-12T14:28:02.773Z,1.50
2022-08-12T23:20:01.266Z,1.20
2022-08-12T23:22:41.008Z,1.47
2022-08-12T23:33:28.652Z,1.50
2022-08-12T23:41:00.843Z,1.53
2022-08-12T23:58:17.365Z,1.90
